Time;durP1;ratioP1;P1;durP2;ratioP2;P2;SDS_P1;SDS_P2;PMS_P1;PMS_P2;Temp;Humidity;BMP_temperature;BMP_pressure;BME280_temperature;BME280_humidity;BME280_pressure;Samples;Min_cycle;Max_cycle;Signal;HPM_P1;HPM_P2
2021/10/10 00:01:45;;;;;;;13.18;6.72;;;9.70;54.80;;;;;;5053224;28;20494;-63
2021/10/10 00:04:11;;;;;;;9.55;5.53;;;9.70;54.80;;;;;;5064471;28;20044;-63
2021/10/10 00:06:37;;;;;;;16.98;5.97;;;9.70;55.00;;;;;;5073121;28;20369;-63
2021/10/10 00:09:04;;;;;;;11.25;6.20;;;9.70;55.00;;;;;;5073100;28;20359;-63
2021/10/10 00:11:30;;;;;;;13.15;5.93;;;9.70;55.00;;;;;;5073061;28;20016;-64
2021/10/10 00:13:55;;;;;;;13.80;5.25;;;9.70;55.00;;;;;;5071844;28;20432;-63
2021/10/10 00:16:21;;;;;;;12.93;6.15;;;9.60;54.90;;;;;;5073357;28;20017;-63
2021/10/10 00:18:48;;;;;;;10.32;6.00;;;9.60;54.90;;;;;;5073061;28;20029;-64
2021/10/10 00:21:13;;;;;;;11.48;5.75;;;9.60;54.90;;;;;;5073086;28;20025;-63
2021/10/10 00:23:39;;;;;;;16.70;6.28;;;9.50;55.00;;;;;;5058270;28;20100;-63
2021/10/10 00:26:05;;;;;;;13.63;6.72;;;9.50;55.20;;;;;;5052845;28;20163;-63
2021/10/10 00:28:31;;;;;;;13.07;5.95;;;9.50;55.40;;;;;;5052919;28;20017;-63
2021/10/10 00:30:57;;;;;;;11.32;5.45;;;9.50;55.40;;;;;;5052814;28;20025;-64
2021/10/10 00:33:24;;;;;;;10.27;5.95;;;9.50;55.40;;;;;;5052858;28;20025;-64
2021/10/10 00:35:50;;;;;;;11.05;5.97;;;9.40;55.40;;;;;;5052827;28;20082;-63
2021/10/10 00:38:16;;;;;;;12.20;6.38;;;9.50;55.40;;;;;;5052853;28;20096;-63
2021/10/10 00:40:42;;;;;;;13.68;5.93;;;9.40;55.40;;;;;;5052818;28;20056;-64
2021/10/10 00:43:08;;;;;;;8.70;5.38;;;9.40;55.40;;;;;;5052827;28;20025;-63
2021/10/10 00:45:33;;;;;;;10.30;5.93;;;9.40;55.40;;;;;;5052692;28;20458;-63
2021/10/10 00:48:00;;;;;;;11.63;5.93;;;9.30;56.00;;;;;;5052683;28;20041;-63
2021/10/10 00:50:28;;;;;;;16.30;6.82;;;9.30;55.50;;;;;;5052750;28;20426;-63
2021/10/10 00:52:53;;;;;;;12.10;5.57;;;9.30;55.70;;;;;;5053090;28;20013;-63
2021/10/10 00:55:21;;;;;;;9.23;5.55;;;9.20;55.60;;;;;;5056723;28;20033;-63
2021/10/10 00:57:49;;;;;;;10.52;5.25;;;9.20;55.70;;;;;;5056651;28;20021;-63
2021/10/10 01:00:16;;;;;;;10.18;5.18;;;9.20;55.70;;;;;;5055416;28;20057;-63
2021/10/10 01:02:43;;;;;;;10.07;5.63;;;9.10;55.70;;;;;;5056222;28;20108;-63
2021/10/10 01:05:13;;;;;;;11.27;6.10;;;9.10;55.70;;;;;;5056313;28;20025;-63
2021/10/10 01:07:39;;;;;;;13.85;5.82;;;9.10;55.80;;;;;;5056496;28;20524;-63
2021/10/10 01:10:07;;;;;;;12.70;6.00;;;9.10;55.90;;;;;;5056338;28;20025;-63
2021/10/10 01:12:33;;;;;;;12.68;6.78;;;9.00;56.00;;;;;;5056257;28;20029;-63
2021/10/10 01:15:00;;;;;;;17.33;7.47;;;9.00;56.10;;;;;;5056164;28;20040;-63
2021/10/10 01:17:26;;;;;;;12.57;6.35;;;9.00;56.40;;;;;;5056141;28;20029;-63
2021/10/10 01:19:54;;;;;;;15.32;7.05;;;9.00;56.40;;;;;;5056139;28;20576;-63
2021/10/10 01:22:21;;;;;;;12.98;6.55;;;9.00;56.60;;;;;;5055901;28;20486;-63
2021/10/10 01:24:47;;;;;;;15.70;6.70;;;9.00;56.50;;;;;;5055954;28;20104;-62
2021/10/10 01:27:14;;;;;;;12.65;7.13;;;9.00;56.60;;;;;;5055941;28;20025;-63
2021/10/10 01:29:40;;;;;;;23.15;6.97;;;9.00;56.60;;;;;;5055878;28;20025;-62
2021/10/10 01:32:06;;;;;;;13.18;6.07;;;9.00;56.60;;;;;;5055934;28;20021;-63
2021/10/10 01:34:33;;;;;;;11.55;6.30;;;9.00;56.60;;;;;;5055879;28;20033;-62
2021/10/10 01:36:59;;;;;;;10.13;5.35;;;9.00;56.60;;;;;;5055821;28;20036;-62
2021/10/10 01:39:24;;;;;;;15.98;7.28;;;9.00;56.60;;;;;;5055845;28;20057;-62
2021/10/10 01:41:50;;;;;;;19.88;7.93;;;9.00;56.60;;;;;;5055777;28;20049;-63
2021/10/10 01:44:17;;;;;;;18.45;6.75;;;9.00;56.80;;;;;;5055735;28;20154;-63
2021/10/10 01:46:43;;;;;;;11.40;6.55;;;9.00;56.90;;;;;;5055686;28;20055;-62
2021/10/10 01:49:11;;;;;;;11.02;6.60;;;8.90;57.30;;;;;;5055638;28;20048;-63
2021/10/10 01:51:37;;;;;;;12.85;6.32;;;9.00;56.90;;;;;;5055496;28;20036;-63
2021/10/10 01:54:03;;;;;;;12.10;5.68;;;8.90;56.90;;;;;;5055549;28;20067;-62
2021/10/10 01:56:29;;;;;;;13.90;6.78;;;8.90;56.90;;;;;;5055518;28;20021;-62
2021/10/10 01:58:56;;;;;;;12.88;6.45;;;8.90;56.80;;;;;;5055462;28;20017;-62
2021/10/10 02:01:22;;;;;;;12.95;6.05;;;8.90;56.70;;;;;;5055504;28;20045;-62
2021/10/10 02:03:48;;;;;;;9.93;5.95;;;8.90;56.70;;;;;;5054963;28;20102;-62
2021/10/10 02:06:14;;;;;;;10.20;5.90;;;8.90;56.60;;;;;;5054094;28;20024;-63
2021/10/10 02:08:39;;;;;;;15.75;6.55;;;8.80;56.50;;;;;;5055284;28;20046;-63
2021/10/10 02:11:05;;;;;;;19.95;6.63;;;8.80;56.60;;;;;;5055278;28;20033;-62
2021/10/10 02:13:31;;;;;;;10.65;6.05;;;8.80;56.70;;;;;;5055207;28;20033;-62
2021/10/10 02:15:57;;;;;;;9.98;5.85;;;8.80;56.60;;;;;;5053834;28;20024;-63
2021/10/10 02:18:24;;;;;;;18.15;6.68;;;8.80;56.70;;;;;;5055138;28;20118;-63
2021/10/10 02:20:50;;;;;;;14.48;6.80;;;8.70;56.80;;;;;;5054955;28;20163;-62
2021/10/10 02:23:16;;;;;;;10.98;5.80;;;8.70;57.10;;;;;;5055000;28;20033;-63
2021/10/10 02:25:42;;;;;;;15.38;7.57;;;8.70;57.20;;;;;;5054947;28;20048;-62
2021/10/10 02:28:08;;;;;;;10.73;6.63;;;8.70;57.40;;;;;;5054840;28;20092;-62
2021/10/10 02:30:33;;;;;;;12.88;5.97;;;8.70;57.50;;;;;;5054833;28;20020;-63
2021/10/10 02:32:59;;;;;;;14.30;6.97;;;8.70;57.50;;;;;;5054755;28;20056;-62
2021/10/10 02:35:25;;;;;;;10.80;6.10;;;8.70;57.70;;;;;;5054831;28;20078;-62
2021/10/10 02:37:51;;;;;;;8.52;5.35;;;8.70;57.80;;;;;;5054693;28;20028;-62
2021/10/10 02:40:17;;;;;;;11.65;6.13;;;8.60;58.30;;;;;;5054708;28;20094;-62
2021/10/10 02:42:43;;;;;;;12.23;5.85;;;8.60;58.00;;;;;;5054655;28;20032;-63
2021/10/10 02:45:10;;;;;;;15.00;7.10;;;8.60;58.00;;;;;;5054716;28;20082;-63
2021/10/10 02:47:36;;;;;;;11.77;6.78;;;8.60;58.20;;;;;;5054599;28;20056;-63
2021/10/10 02:50:02;;;;;;;14.02;7.18;;;8.60;58.50;;;;;;5054502;28;20473;-62
2021/10/10 02:52:28;;;;;;;8.55;5.72;;;8.60;58.60;;;;;;5054479;28;20029;-63
2021/10/10 02:54:54;;;;;;;10.90;5.93;;;8.60;58.50;;;;;;5054447;28;20039;-62
2021/10/10 02:57:19;;;;;;;12.98;6.63;;;8.60;58.40;;;;;;5054470;28;20028;-63
2021/10/10 02:59:46;;;;;;;10.65;6.40;;;8.50;58.50;;;;;;5054380;28;20029;-62
2021/10/10 03:02:12;;;;;;;12.13;5.93;;;8.50;58.60;;;;;;5054125;28;20032;-63
2021/10/10 03:04:38;;;;;;;13.95;6.85;;;8.50;58.60;;;;;;5054136;28;20051;-63
2021/10/10 03:07:04;;;;;;;12.60;7.35;;;8.50;58.60;;;;;;5054208;28;20090;-62
2021/10/10 03:09:29;;;;;;;10.45;6.22;;;8.50;58.70;;;;;;5053127;28;20074;-63
2021/10/10 03:11:56;;;;;;;14.52;7.63;;;8.50;58.70;;;;;;5054088;28;20028;-62
2021/10/10 03:14:21;;;;;;;13.10;7.70;;;8.40;58.90;;;;;;5054071;28;20462;-63
2021/10/10 03:16:47;;;;;;;16.63;7.40;;;8.40;59.10;;;;;;5053650;28;20060;-62
2021/10/10 03:19:14;;;;;;;19.55;7.65;;;8.40;59.20;;;;;;5053892;28;20521;-62
2021/10/10 03:21:40;;;;;;;15.25;7.95;;;8.40;59.30;;;;;;5052608;28;20025;-63
2021/10/10 03:24:06;;;;;;;16.13;7.10;;;8.40;59.50;;;;;;5053776;28;20029;-62
2021/10/10 03:26:32;;;;;;;13.80;7.03;;;8.30;59.50;;;;;;5053839;28;20021;-62
2021/10/10 03:28:58;;;;;;;16.60;6.78;;;8.30;59.40;;;;;;5053769;28;20028;-63
2021/10/10 03:31:23;;;;;;;11.98;6.65;;;8.30;59.40;;;;;;5053758;28;20017;-63
2021/10/10 03:33:50;;;;;;;12.10;7.30;;;8.30;59.40;;;;;;5053619;28;20071;-62
2021/10/10 03:36:16;;;;;;;12.48;6.25;;;8.30;59.40;;;;;;5053740;28;20021;-63
2021/10/10 03:38:42;;;;;;;11.27;6.68;;;8.30;59.40;;;;;;5053598;28;20028;-62
2021/10/10 03:41:09;;;;;;;15.70;6.90;;;8.30;59.40;;;;;;5053523;28;20104;-63
2021/10/10 03:43:34;;;;;;;15.38;7.32;;;8.20;59.40;;;;;;5053575;28;20017;-62
2021/10/10 03:46:00;;;;;;;13.25;7.20;;;8.20;59.50;;;;;;5053420;28;20040;-62
2021/10/10 03:48:26;;;;;;;14.90;6.43;;;8.20;59.70;;;;;;5053500;28;20482;-62
2021/10/10 03:50:52;;;;;;;14.15;6.70;;;8.20;59.70;;;;;;5053428;28;20506;-63
2021/10/10 03:53:21;;;;;;;17.13;6.85;;;8.20;59.70;;;;;;5053407;28;20017;-62
2021/10/10 03:55:51;;;;;;;13.55;7.00;;;8.20;59.80;;;;;;5053343;28;20075;-63
2021/10/10 03:58:16;;;;;;;9.88;6.07;;;8.20;60.50;;;;;;5053248;28;20029;-62
2021/10/10 04:00:45;;;;;;;13.82;6.53;;;8.20;59.70;;;;;;5053249;28;20546;-63
2021/10/10 04:03:12;;;;;;;10.93;6.10;;;8.10;59.70;;;;;;5053041;28;20052;-63
2021/10/10 04:05:43;;;;;;;14.40;7.40;;;8.10;59.70;;;;;;5053068;28;20082;-62
2021/10/10 04:08:09;;;;;;;13.35;6.95;;;8.10;59.80;;;;;;5053226;28;20049;-63
2021/10/10 04:10:36;;;;;;;13.20;7.45;;;8.00;59.80;;;;;;5052183;28;20351;-64
2021/10/10 04:13:02;;;;;;;17.17;7.78;;;8.00;59.80;;;;;;5053185;28;20053;-64
2021/10/10 04:15:29;;;;;;;12.75;6.95;;;8.00;59.90;;;;;;5053171;28;20100;-62
2021/10/10 04:17:54;;;;;;;14.63;7.68;;;8.00;59.90;;;;;;5052941;28;20363;-62
2021/10/10 04:20:20;;;;;;;17.08;7.95;;;8.00;60.00;;;;;;5053102;28;20027;-63
2021/10/10 04:22:46;;;;;;;19.55;8.18;;;8.00;60.00;;;;;;5053025;28;20471;-62
2021/10/10 04:25:12;;;;;;;15.80;8.38;;;8.00;60.10;;;;;;5052948;28;20127;-63
2021/10/10 04:27:38;;;;;;;16.55;7.47;;;8.00;60.70;;;;;;5052219;28;20124;-63
2021/10/10 04:30:09;;;;;;;15.93;7.63;;;8.00;60.00;;;;;;5052973;28;20025;-63
2021/10/10 04:32:34;;;;;;;17.90;7.82;;;7.90;60.00;;;;;;5052963;28;20073;-62
2021/10/10 04:35:00;;;;;;;13.95;7.25;;;7.90;60.00;;;;;;5052925;28;20029;-63
2021/10/10 04:37:26;;;;;;;14.32;7.70;;;7.90;60.10;;;;;;5052727;28;20526;-63
2021/10/10 04:39:52;;;;;;;17.98;8.38;;;7.90;60.30;;;;;;5052767;28;20510;-62
2021/10/10 04:42:18;;;;;;;18.77;8.85;;;7.90;60.70;;;;;;5052875;28;20037;-63
2021/10/10 04:44:44;;;;;;;19.52;9.10;;;7.90;61.10;;;;;;5052784;28;20082;-63
2021/10/10 04:47:10;;;;;;;16.67;8.68;;;7.80;61.50;;;;;;5052822;28;20021;-63
2021/10/10 04:49:36;;;;;;;18.92;8.00;;;7.90;61.90;;;;;;5052781;28;20021;-63
2021/10/10 04:52:02;;;;;;;21.15;9.13;;;7.90;62.10;;;;;;5052762;28;20025;-63
2021/10/10 04:54:29;;;;;;;41.38;9.07;;;7.90;62.30;;;;;;5052745;28;20033;-63
2021/10/10 04:56:55;;;;;;;20.23;9.32;;;7.90;62.50;;;;;;5052690;28;20390;-63
2021/10/10 04:59:21;;;;;;;16.05;7.88;;;7.90;62.70;;;;;;5052687;28;20497;-62
2021/10/10 05:01:47;;;;;;;17.35;8.20;;;7.80;62.70;;;;;;5052673;28;20037;-62
2021/10/10 05:04:13;;;;;;;20.15;8.55;;;7.90;62.90;;;;;;5052439;28;20154;-62
2021/10/10 05:06:38;;;;;;;13.65;7.85;;;7.90;63.00;;;;;;5052533;28;20465;-63
2021/10/10 05:09:04;;;;;;;16.17;9.00;;;7.90;63.10;;;;;;5052613;28;20017;-62
2021/10/10 05:11:30;;;;;;;16.10;8.80;;;7.90;63.10;;;;;;5052566;28;20025;-62
2021/10/10 05:13:56;;;;;;;20.80;8.90;;;7.90;63.10;;;;;;5052537;28;20026;-62
2021/10/10 05:16:21;;;;;;;17.17;8.85;;;7.90;63.10;;;;;;5052397;28;20021;-62
2021/10/10 05:18:47;;;;;;;14.40;8.05;;;7.90;63.00;;;;;;5052266;28;20467;-62
2021/10/10 05:21:13;;;;;;;15.18;8.90;;;7.90;62.70;;;;;;5072328;28;20037;-63
2021/10/10 05:23:39;;;;;;;16.05;7.70;;;7.90;62.50;;;;;;5072345;28;20482;-63
2021/10/10 05:26:06;;;;;;;14.40;7.57;;;7.90;62.30;;;;;;5072253;28;20033;-63
2021/10/10 05:28:32;;;;;;;17.50;8.27;;;7.90;62.10;;;;;;5072332;28;20021;-63
2021/10/10 05:30:57;;;;;;;15.15;8.65;;;7.90;62.20;;;;;;5072321;28;20113;-63
2021/10/10 05:33:24;;;;;;;14.23;7.90;;;7.80;62.20;;;;;;5072339;28;20021;-62
2021/10/10 05:35:50;;;;;;;13.38;6.97;;;7.80;62.30;;;;;;5070562;28;20024;-64
2021/10/10 05:38:16;;;;;;;11.77;7.07;;;7.80;62.20;;;;;;5072245;28;20040;-63
2021/10/10 05:40:42;;;;;;;14.82;7.53;;;7.80;62.00;;;;;;5075323;28;20039;-63
2021/10/10 05:43:07;;;;;;;12.00;7.38;;;7.80;61.80;;;;;;5075955;28;20059;-63
2021/10/10 05:45:33;;;;;;;12.73;6.97;;;7.80;61.70;;;;;;5075857;28;20436;-63
2021/10/10 05:47:59;;;;;;;13.90;7.75;;;7.80;61.70;;;;;;5075828;28;20032;-63
2021/10/10 05:50:25;;;;;;;18.52;7.40;;;7.80;61.80;;;;;;5073970;28;20027;-62
2021/10/10 05:52:50;;;;;;;23.92;9.25;;;7.80;61.80;;;;;;5075651;28;20099;-63
2021/10/10 05:55:20;;;;;;;25.77;9.50;;;7.80;61.90;;;;;;5075594;28;20493;-63
2021/10/10 05:57:48;;;;;;;15.35;9.23;;;7.80;62.10;;;;;;5075575;28;20021;-63
2021/10/10 06:00:16;;;;;;;14.75;8.73;;;7.90;62.20;;;;;;5075498;28;20029;-63
2021/10/10 06:02:43;;;;;;;12.52;7.53;;;7.90;62.10;;;;;;5075287;28;20064;-63
2021/10/10 06:05:10;;;;;;;14.43;7.55;;;7.90;61.90;;;;;;5057000;28;20047;-63
2021/10/10 06:07:37;;;;;;;16.83;8.38;;;8.00;61.80;;;;;;5055401;28;20032;-63
2021/10/10 06:10:05;;;;;;;12.48;7.60;;;8.10;61.80;;;;;;5055278;28;20021;-63
2021/10/10 06:12:31;;;;;;;15.48;7.63;;;8.10;61.70;;;;;;5055231;28;20028;-63
2021/10/10 06:14:58;;;;;;;17.92;7.97;;;8.20;61.70;;;;;;5053865;28;20024;-63
2021/10/10 06:17:24;;;;;;;17.08;7.80;;;8.20;61.70;;;;;;5055055;28;20470;-63
2021/10/10 06:19:50;;;;;;;19.77;8.38;;;8.30;61.70;;;;;;5057580;28;20036;-63
2021/10/10 06:22:16;;;;;;;12.70;8.07;;;8.40;61.50;;;;;;5055254;28;20072;-63
2021/10/10 06:24:42;;;;;;;13.40;7.85;;;8.40;61.30;;;;;;5055047;28;20426;-63
2021/10/10 06:27:08;;;;;;;16.60;9.07;;;8.50;61.00;;;;;;5055032;28;20092;-64
2021/10/10 06:29:34;;;;;;;17.58;8.77;;;8.60;60.80;;;;;;5054969;28;20148;-63
2021/10/10 06:32:00;;;;;;;16.10;8.73;;;8.60;60.40;;;;;;5054974;28;20029;-63
2021/10/10 06:34:25;;;;;;;17.40;9.07;;;8.70;60.20;;;;;;5053499;28;20430;-63
2021/10/10 06:36:51;;;;;;;20.90;10.02;;;8.80;60.00;;;;;;5054874;28;20025;-63
2021/10/10 06:39:17;;;;;;;17.33;8.63;;;8.80;59.60;;;;;;5059845;28;20112;-63
2021/10/10 06:41:46;;;;;;;16.88;9.15;;;8.90;59.60;;;;;;5074808;28;20075;-63
2021/10/10 06:44:11;;;;;;;19.55;8.93;;;9.00;59.40;;;;;;5074647;28;20024;-63
2021/10/10 06:46:37;;;;;;;16.88;9.38;;;9.00;59.30;;;;;;5073390;28;20565;-63
2021/10/10 06:49:03;;;;;;;18.20;9.77;;;9.00;59.20;;;;;;5074493;28;20035;-63
2021/10/10 06:51:29;;;;;;;15.63;8.90;;;9.10;59.20;;;;;;5073739;28;20039;-63
2021/10/10 06:53:55;;;;;;;29.98;9.90;;;9.10;59.00;;;;;;5070658;28;20021;-63
2021/10/10 06:56:21;;;;;;;21.83;10.68;;;9.20;59.10;;;;;;5054470;28;20029;-63
2021/10/10 06:58:47;;;;;;;19.27;10.45;;;9.20;58.90;;;;;;5054438;28;20021;-63
2021/10/10 07:01:14;;;;;;;26.67;10.10;;;9.30;58.90;;;;;;5054341;28;20033;-63
2021/10/10 07:03:40;;;;;;;18.55;10.20;;;9.40;58.70;;;;;;5054076;28;20056;-64
2021/10/10 07:06:06;;;;;;;20.00;10.30;;;9.40;58.40;;;;;;5054198;28;20029;-63
2021/10/10 07:08:32;;;;;;;19.17;10.57;;;9.50;58.40;;;;;;5055065;28;20029;-64
2021/10/10 07:10:58;;;;;;;16.85;9.98;;;9.50;58.20;;;;;;5074172;28;20056;-63
2021/10/10 07:13:25;;;;;;;18.15;10.60;;;9.60;58.10;;;;;;5062782;28;20017;-63
2021/10/10 07:15:51;;;;;;;16.58;9.50;;;9.70;58.00;;;;;;5053933;28;20025;-63
2021/10/10 07:18:30;;;;;;;26.00;10.98;;;9.70;57.90;;;;;;5054071;28;20049;-63
2021/10/10 07:23:34;;;;;;;18.30;10.07;;;9.90;57.50;;;;;;5054102;28;20036;-64
2021/10/10 07:26:01;;;;;;;20.00;11.20;;;9.90;57.50;;;;;;5053901;28;20037;-63
2021/10/10 07:28:27;;;;;;;19.55;10.07;;;10.00;57.20;;;;;;5052621;28;20434;-63
2021/10/10 07:30:54;;;;;;;21.08;10.73;;;10.10;57.30;;;;;;5053792;28;20036;-64
2021/10/10 07:33:20;;;;;;;23.05;11.68;;;10.20;57.20;;;;;;5053791;28;20028;-63
2021/10/10 07:35:46;;;;;;;19.55;10.90;;;10.30;57.20;;;;;;5053731;28;20025;-64
2021/10/10 07:38:12;;;;;;;20.33;12.57;;;10.40;57.20;;;;;;5055582;28;20078;-63
2021/10/10 07:40:38;;;;;;;25.30;13.18;;;10.50;56.80;;;;;;5073603;28;20028;-63
2021/10/10 07:43:04;;;;;;;21.88;12.18;;;10.60;56.60;;;;;;5073551;28;20031;-63
2021/10/10 07:45:31;;;;;;;20.73;11.07;;;10.60;56.30;;;;;;5073398;28;20033;-63
2021/10/10 07:48:02;;;;;;;19.33;10.43;;;10.70;56.40;;;;;;5073474;28;20035;-63
2021/10/10 07:50:29;;;;;;;17.73;10.57;;;10.80;56.80;;;;;;5073498;28;20104;-63
2021/10/10 07:52:54;;;;;;;19.90;11.57;;;10.90;56.20;;;;;;5069809;28;20021;-64
2021/10/10 07:55:20;;;;;;;20.95;11.52;;;11.00;56.00;;;;;;5053396;28;20032;-63
2021/10/10 07:57:46;;;;;;;19.23;10.95;;;11.00;55.60;;;;;;5055855;28;20051;-64
2021/10/10 08:00:12;;;;;;;19.48;11.25;;;11.00;55.60;;;;;;5073317;28;20028;-64
2021/10/10 08:02:53;;;;;;;21.60;10.50;;;11.00;55.50;;;;;;5071589;28;20051;-63
2021/10/10 08:05:19;;;;;;;19.65;10.15;;;11.10;55.40;;;;;;5072866;28;20577;-63
2021/10/10 08:07:45;;;;;;;20.40;11.18;;;11.10;55.40;;;;;;5072437;28;20086;-63
2021/10/10 08:10:10;;;;;;;17.50;10.15;;;11.10;55.20;;;;;;5066405;28;20025;-64
2021/10/10 08:12:36;;;;;;;20.52;10.00;;;11.10;55.20;;;;;;5053002;28;20035;-63
2021/10/10 08:15:02;;;;;;;20.63;11.38;;;11.10;55.30;;;;;;5053042;28;20423;-62
2021/10/10 08:17:28;;;;;;;33.88;14.82;;;11.10;55.30;;;;;;5052969;28;20405;-63
2021/10/10 08:19:53;;;;;;;27.42;14.10;;;11.10;55.20;;;;;;5061438;28;20029;-63
2021/10/10 08:22:19;;;;;;;29.45;13.07;;;11.10;55.10;;;;;;5072676;28;20020;-63
2021/10/10 08:24:46;;;;;;;26.42;12.60;;;11.10;55.10;;;;;;5072814;28;20032;-63
2021/10/10 08:27:12;;;;;;;32.20;14.45;;;11.20;55.00;;;;;;5072878;28;20035;-63
2021/10/10 08:29:38;;;;;;;26.10;13.38;;;11.30;54.90;;;;;;5072923;28;20077;-63
2021/10/10 08:32:04;;;;;;;24.98;13.27;;;11.30;54.80;;;;;;5072872;28;20078;-63
2021/10/10 08:34:30;;;;;;;22.27;11.77;;;11.30;54.50;;;;;;5072898;28;20034;-63
2021/10/10 08:36:56;;;;;;;33.30;14.95;;;11.40;54.60;;;;;;5072807;28;20024;-63
2021/10/10 08:39:24;;;;;;;32.03;14.32;;;11.40;54.10;;;;;;5062283;28;20055;-63
2021/10/10 08:41:58;;;;;;;28.13;12.00;;;11.40;54.00;;;;;;5072621;28;20379;-64
2021/10/10 08:44:31;;;;;;;26.33;11.25;;;11.40;54.10;;;;;;5072653;28;20021;-64
2021/10/10 08:47:06;;;;;;;22.70;10.45;;;11.40;54.20;;;;;;5072787;28;20103;-63
2021/10/10 08:49:32;;;;;;;19.80;10.48;;;11.50;54.10;;;;;;5072846;28;20474;-64
2021/10/10 08:52:07;;;;;;;20.25;10.52;;;11.50;54.20;;;;;;5072804;28;20039;-63
2021/10/10 08:54:33;;;;;;;17.52;9.60;;;11.50;54.10;;;;;;5072656;28;20544;-63
2021/10/10 08:56:59;;;;;;;19.55;10.55;;;11.60;54.30;;;;;;5052886;28;20033;-63
2021/10/10 08:59:27;;;;;;;27.17;11.35;;;11.60;54.30;;;;;;5052508;28;20021;-64
2021/10/10 09:01:57;;;;;;;29.10;11.30;;;11.70;54.20;;;;;;5052631;28;20025;-64
2021/10/10 09:04:23;;;;;;;18.55;10.10;;;11.70;54.00;;;;;;5053012;28;20471;-63
2021/10/10 09:06:51;;;;;;;26.42;12.50;;;11.90;54.20;;;;;;5071846;28;20100;-63
2021/10/10 09:09:29;;;;;;;19.25;11.70;;;11.90;53.70;;;;;;5065980;28;20386;-64
2021/10/10 09:12:07;;;;;;;22.00;11.75;;;12.00;53.50;;;;;;5052431;28;20021;-64
2021/10/10 09:14:48;;;;;;;23.10;11.88;;;12.20;53.30;;;;;;5053916;28;20074;-63
2021/10/10 09:17:22;;;;;;;18.20;10.73;;;12.30;53.70;;;;;;5056227;28;20095;-64
2021/10/10 09:19:53;;;;;;;19.67;11.00;;;12.40;53.10;;;;;;5056288;28;20025;-64
2021/10/10 09:22:21;;;;;;;19.60;10.75;;;12.60;52.70;;;;;;5056021;28;20032;-64
2021/10/10 09:24:48;;;;;;;23.88;12.05;;;12.70;52.70;;;;;;5056038;28;20051;-63
2021/10/10 09:27:15;;;;;;;24.35;11.65;;;12.80;52.50;;;;;;5054867;28;20052;-63
2021/10/10 09:29:44;;;;;;;22.15;12.73;;;12.80;51.70;;;;;;5056104;28;20013;-64
2021/10/10 09:32:20;;;;;;;21.50;11.15;;;12.90;51.70;;;;;;5055812;28;20083;-63
2021/10/10 09:34:47;;;;;;;19.95;11.13;;;13.00;51.90;;;;;;5054723;28;20025;-64
2021/10/10 09:37:21;;;;;;;24.50;11.65;;;13.10;51.80;;;;;;5055796;28;20364;-64
2021/10/10 09:40:04;;;;;;;20.85;10.73;;;13.10;51.50;;;;;;5071859;28;20047;-64
2021/10/10 09:42:42;;;;;;;22.40;11.13;;;13.20;52.20;;;;;;5075583;28;20070;-64
2021/10/10 09:45:24;;;;;;;19.52;11.50;;;13.30;51.00;;;;;;5075709;28;20029;-64
2021/10/10 09:47:57;;;;;;;24.83;11.50;;;13.40;50.60;;;;;;5075779;28;20028;-64
2021/10/10 09:50:24;;;;;;;22.83;11.32;;;13.40;50.20;;;;;;5075657;28;20025;-64
2021/10/10 09:53:07;;;;;;;21.08;9.90;;;13.50;50.20;;;;;;5075932;28;20406;-64
2021/10/10 09:55:34;;;;;;;24.10;11.02;;;13.50;50.60;;;;;;5075373;28;20529;-65
2021/10/10 09:58:01;;;;;;;22.67;11.35;;;13.60;50.70;;;;;;5070787;28;20029;-64
2021/10/10 10:00:30;;;;;;;23.17;11.82;;;13.60;50.40;;;;;;5066876;28;20415;-64
2021/10/10 10:03:14;;;;;;;20.25;11.05;;;13.70;49.90;;;;;;5069449;28;20115;-62
2021/10/10 10:05:40;;;;;;;21.83;11.02;;;13.80;49.60;;;;;;5066994;28;20032;-65
2021/10/10 10:08:05;;;;;;;22.80;11.93;;;13.80;49.50;;;;;;5067255;28;20382;-65
2021/10/10 10:10:33;;;;;;;20.90;11.20;;;13.80;49.50;;;;;;5056365;28;20031;-64
2021/10/10 10:13:01;;;;;;;19.30;10.48;;;13.90;49.30;;;;;;5075031;28;20024;-62
2021/10/10 10:15:31;;;;;;;17.73;9.63;;;13.90;49.00;;;;;;5075011;28;20104;-63
2021/10/10 10:17:57;;;;;;;22.10;10.48;;;14.00;48.40;;;;;;5074784;28;20116;-63
2021/10/10 10:20:25;;;;;;;20.15;11.20;;;14.10;48.30;;;;;;5074946;28;20024;-63
2021/10/10 10:22:52;;;;;;;19.25;9.52;;;14.10;47.60;;;;;;5072253;28;20026;-62
2021/10/10 10:25:19;;;;;;;18.80;9.90;;;14.20;47.80;;;;;;5069345;28;20108;-63
2021/10/10 10:27:44;;;;;;;17.33;9.45;;;14.30;47.50;;;;;;5065737;28;20028;-63
2021/10/10 10:30:11;;;;;;;24.77;10.50;;;14.30;46.80;;;;;;5066894;28;20099;-63
2021/10/10 10:32:37;;;;;;;21.73;11.05;;;14.40;46.40;;;;;;5054730;28;20490;-63
2021/10/10 10:35:12;;;;;;;21.23;10.52;;;14.40;45.80;;;;;;5062571;28;20138;-63
2021/10/10 10:37:44;;;;;;;17.95;9.43;;;14.40;45.30;;;;;;5074157;28;20455;-62
2021/10/10 10:40:15;;;;;;;20.05;10.45;;;14.50;45.30;;;;;;5067860;28;20044;-62
2021/10/10 10:42:45;;;;;;;20.95;10.43;;;14.60;44.40;;;;;;5065549;28;20013;-63
2021/10/10 10:45:25;;;;;;;20.75;9.30;;;14.60;44.70;;;;;;5054416;28;20029;-64
2021/10/10 10:47:53;;;;;;;32.47;13.55;;;14.60;45.10;;;;;;5071064;28;20032;-64
2021/10/10 10:50:41;;;;;;;34.63;13.55;;;14.70;44.40;;;;;;5074181;28;20024;-64
2021/10/10 10:53:13;;;;;;;23.52;12.15;;;14.70;44.50;;;;;;5071938;28;20045;-64
2021/10/10 10:55:44;;;;;;;20.50;10.15;;;14.70;44.30;;;;;;5058434;28;20108;-64
2021/10/10 10:58:15;;;;;;;20.95;10.23;;;14.80;44.80;;;;;;5074270;28;20112;-64
2021/10/10 11:00:43;;;;;;;23.92;11.63;;;14.80;44.70;;;;;;5073546;28;20070;-64
2021/10/10 11:03:18;;;;;;;32.83;15.77;;;14.80;44.80;;;;;;5053939;28;20041;-65
2021/10/10 11:05:47;;;;;;;26.30;12.38;;;14.90;44.40;;;;;;5053842;28;20024;-64
2021/10/10 11:08:16;;;;;;;25.20;11.88;;;14.90;44.80;;;;;;5061111;28;20017;-64
2021/10/10 11:11:04;;;;;;;24.63;12.07;;;14.90;44.80;;;;;;5074056;28;20020;-64
2021/10/10 11:13:42;;;;;;;20.30;11.05;;;14.90;43.90;;;;;;5073827;28;20533;-64
2021/10/10 11:16:19;;;;;;;25.23;12.48;;;15.00;44.00;;;;;;5073857;28;20098;-64
2021/10/10 11:18:56;;;;;;;26.73;13.35;;;15.00;43.60;;;;;;5058870;28;20025;-64
2021/10/10 11:21:32;;;;;;;30.65;12.70;;;15.00;43.00;;;;;;5073762;28;20086;-64
2021/10/10 11:24:00;;;;;;;28.85;12.80;;;15.10;43.20;;;;;;5058483;28;20386;-64
2021/10/10 11:26:28;;;;;;;21.27;11.43;;;15.10;42.90;;;;;;5053739;28;20432;-64
2021/10/10 11:28:57;;;;;;;25.38;11.35;;;15.10;42.80;;;;;;5053625;28;20021;-64
2021/10/10 11:31:30;;;;;;;21.25;10.55;;;15.10;42.70;;;;;;5053758;28;20027;-63
2021/10/10 11:34:02;;;;;;;26.02;10.57;;;15.10;43.00;;;;;;5053718;28;20024;-64
2021/10/10 11:36:34;;;;;;;25.27;11.07;;;15.20;43.10;;;;;;5070134;28;20020;-64
2021/10/10 11:39:01;;;;;;;20.13;10.48;;;15.20;42.40;;;;;;5073425;28;20097;-64
2021/10/10 11:41:28;;;;;;;19.77;10.60;;;15.20;42.60;;;;;;5073403;28;20448;-64
2021/10/10 11:43:58;;;;;;;26.25;11.80;;;15.20;42.90;;;;;;5073460;28;20692;-64
2021/10/10 11:46:25;;;;;;;20.83;10.57;;;15.20;42.80;;;;;;5073379;28;20063;-64
2021/10/10 11:48:53;;;;;;;20.95;10.32;;;15.30;43.50;;;;;;5073383;28;20439;-64
2021/10/10 11:51:39;;;;;;;20.23;10.07;;;15.30;42.90;;;;;;5073215;28;20027;-64
2021/10/10 11:54:06;;;;;;;20.00;10.88;;;15.40;43.20;;;;;;5069480;28;20425;-64
2021/10/10 11:56:32;;;;;;;27.10;11.68;;;15.40;42.70;;;;;;5053407;28;20382;-65
2021/10/10 11:59:11;;;;;;;23.23;10.95;;;15.50;42.50;;;;;;5057028;28;20028;-64
2021/10/10 12:01:38;;;;;;;23.75;12.20;;;15.50;43.20;;;;;;5072382;28;20016;-64
2021/10/10 12:04:04;;;;;;;23.55;11.20;;;15.60;42.90;;;;;;5066952;28;20052;-64
2021/10/10 12:06:30;;;;;;;18.13;10.07;;;15.60;42.60;;;;;;5063844;28;20363;-66
2021/10/10 12:09:11;;;;;;;18.80;9.60;;;15.60;41.90;;;;;;5073030;28;20422;-65
2021/10/10 12:11:40;;;;;;;17.50;8.75;;;15.60;42.40;;;;;;5072683;28;20095;-64
2021/10/10 12:14:07;;;;;;;17.40;9.60;;;15.70;42.80;;;;;;5052358;28;20021;-64
2021/10/10 12:16:46;;;;;;;21.15;9.68;;;15.70;43.00;;;;;;5070481;28;20370;-64
2021/10/10 12:19:12;;;;;;;27.17;10.15;;;15.70;42.70;;;;;;5060910;28;20025;-64
2021/10/10 12:21:39;;;;;;;19.23;10.95;;;15.80;42.10;;;;;;5051790;28;20021;-64
2021/10/10 12:24:11;;;;;;;22.80;11.15;;;15.80;41.80;;;;;;5053698;28;20020;-64
2021/10/10 12:27:04;;;;;;;19.25;10.43;;;15.80;42.40;;;;;;5068686;28;20035;-64
2021/10/10 12:29:31;;;;;;;18.73;10.15;;;15.80;43.00;;;;;;5066622;28;20119;-64
2021/10/10 12:32:20;;;;;;;20.55;10.30;;;15.80;43.00;;;;;;5056065;28;20024;-64
2021/10/10 12:34:46;;;;;;;17.70;8.82;;;15.90;43.20;;;;;;5071134;28;20070;-64
2021/10/10 12:37:23;;;;;;;16.13;9.57;;;16.00;43.10;;;;;;5069586;28;20546;-64
2021/10/10 12:39:50;;;;;;;20.65;9.95;;;16.00;43.10;;;;;;5054654;28;20056;-64
2021/10/10 12:42:21;;;;;;;17.13;9.82;;;16.10;42.90;;;;;;5052456;28;20390;-64
2021/10/10 12:45:28;;;;;;;19.27;9.35;;;16.10;42.80;;;;;;5058786;28;20029;-64